createdAt,value
2019-03-18T00:00:27.780Z,19.10
2019-03-18T00:02:57.896Z,19.10
2019-03-18T00:05:26.373Z,19.10
2019-03-18T00:07:54.857Z,19.00
2019-03-18T00:10:23.663Z,19.00
2019-03-18T00:12:53.681Z,19.00
2019-03-18T00:15:22.452Z,19.00
2019-03-18T00:17:50.946Z,19.00
2019-03-18T00:20:19.406Z,19.00
2019-03-18T00:22:47.916Z,19.00
2019-03-18T00:25:16.723Z,19.00
2019-03-18T00:27:46.807Z,18.90
2019-03-18T00:30:20.144Z,18.90
2019-03-18T00:32:48.828Z,18.90
2019-03-18T00:35:17.269Z,18.90
2019-03-18T00:37:45.719Z,18.90
2019-03-18T00:40:15.579Z,18.90
2019-03-18T00:42:44.015Z,18.90
2019-03-18T00:45:15.054Z,18.90
2019-03-18T00:47:45.893Z,18.90
2019-03-18T00:50:16.357Z,18.80
2019-03-18T00:52:44.892Z,18.80
2019-03-18T00:55:13.739Z,18.80
2019-03-18T00:57:43.087Z,18.80
2019-03-18T01:00:15.792Z,18.80
2019-03-18T01:02:44.497Z,18.80
2019-03-18T01:05:13.117Z,18.80
2019-03-18T01:07:41.696Z,18.80
2019-03-18T01:10:17.149Z,18.80
2019-03-18T01:12:45.611Z,18.70
2019-03-18T01:15:26.821Z,18.70
2019-03-18T01:17:44.916Z,18.70
2019-03-18T01:20:14.169Z,18.70
2019-03-18T01:22:42.638Z,18.70
2019-03-18T01:25:11.203Z,18.70
2019-03-18T01:27:39.646Z,18.70
2019-03-18T01:30:14.534Z,18.70
2019-03-18T01:32:43.065Z,18.70
2019-03-18T01:35:11.571Z,18.60
2019-03-18T01:37:40.025Z,18.60
2019-03-18T01:40:11.144Z,18.60
2019-03-18T01:42:39.862Z,18.60
2019-03-18T01:45:08.951Z,18.60
2019-03-18T01:47:37.478Z,18.60
2019-03-18T01:50:16.834Z,18.60
2019-03-18T01:52:45.311Z,18.60
2019-03-18T01:55:13.765Z,18.60
2019-03-18T01:57:42.218Z,18.60
2019-03-18T02:00:12.951Z,18.60
2019-03-18T02:02:41.571Z,18.60
2019-03-18T02:05:10.700Z,18.50
2019-03-18T02:07:39.277Z,18.50
2019-03-18T02:10:14.922Z,18.50
2019-03-18T02:12:43.424Z,18.50
2019-03-18T02:15:13.011Z,18.50
2019-03-18T02:17:41.449Z,18.50
2019-03-18T02:20:13.241Z,18.50
2019-03-18T02:22:41.859Z,18.50
2019-03-18T02:25:10.673Z,18.50
2019-03-18T02:27:39.478Z,18.40
2019-03-18T02:30:12.811Z,18.40
2019-03-18T02:32:41.264Z,18.40
2019-03-18T02:35:09.810Z,18.40
2019-03-18T02:37:38.257Z,18.40
2019-03-18T02:40:08.658Z,18.40
2019-03-18T02:42:37.281Z,18.40
2019-03-18T02:45:08.628Z,18.40
2019-03-18T02:47:37.345Z,18.40
2019-03-18T02:50:07.369Z,18.40
2019-03-18T02:52:36.101Z,18.30
2019-03-18T02:55:06.154Z,18.30
2019-03-18T02:57:36.277Z,18.30
2019-03-18T03:00:12.620Z,18.30
2019-03-18T03:02:41.292Z,18.30
2019-03-18T03:05:11.225Z,18.30
2019-03-18T03:07:39.968Z,18.30
2019-03-18T03:10:10.537Z,18.30
2019-03-18T03:12:39.232Z,18.30
2019-03-18T03:15:10.040Z,18.30
2019-03-18T03:17:38.518Z,18.20
2019-03-18T03:20:09.006Z,18.30
2019-03-18T03:22:37.462Z,18.20
2019-03-18T03:25:07.621Z,18.20
2019-03-18T03:27:36.771Z,18.20
2019-03-18T03:30:10.961Z,18.20
2019-03-18T03:32:39.516Z,18.20
2019-03-18T03:35:08.065Z,18.20
2019-03-18T03:37:36.512Z,18.20
2019-03-18T03:40:08.355Z,18.20
2019-03-18T03:42:36.908Z,18.20
2019-03-18T03:45:07.527Z,18.20
2019-03-18T03:47:35.962Z,18.20
2019-03-18T03:50:06.397Z,18.20
2019-03-18T03:52:35.427Z,18.20
2019-03-18T03:55:04.729Z,18.20
2019-03-18T03:57:33.244Z,18.20
2019-03-18T04:00:01.772Z,18.20
2019-03-18T04:02:31.879Z,18.20
2019-03-18T04:05:00.803Z,18.20
2019-03-18T04:07:29.283Z,18.20
2019-03-18T04:09:57.889Z,18.20
2019-03-18T04:12:26.440Z,18.20
2019-03-18T04:14:55.029Z,18.20
2019-03-18T04:17:23.685Z,18.20
2019-03-18T04:19:52.347Z,18.20
2019-03-18T04:22:20.910Z,18.30
2019-03-18T04:24:49.405Z,18.30
2019-03-18T04:27:17.928Z,18.30
2019-03-18T04:29:46.373Z,18.30
2019-03-18T04:32:14.855Z,18.40
2019-03-18T04:34:43.423Z,18.40
2019-03-18T04:37:12.138Z,18.40
2019-03-18T04:39:40.600Z,18.40
2019-03-18T04:42:09.138Z,18.50
2019-03-18T04:44:37.705Z,18.50
2019-03-18T04:47:14.301Z,18.50
2019-03-18T04:49:36.823Z,18.50
2019-03-18T04:52:05.340Z,18.60
2019-03-18T04:54:33.784Z,18.60
2019-03-18T04:57:02.292Z,18.60
2019-03-18T04:59:30.822Z,18.70
2019-03-18T05:01:59.315Z,18.70
2019-03-18T05:04:27.877Z,18.80
2019-03-18T05:06:56.321Z,18.80
2019-03-18T05:09:24.855Z,18.80
2019-03-18T05:11:53.336Z,18.80
2019-03-18T05:14:21.853Z,18.80
2019-03-18T05:16:50.426Z,18.90
2019-03-18T05:19:20.584Z,18.90
2019-03-18T05:21:49.341Z,18.90
2019-03-18T05:24:17.788Z,19.00
2019-03-18T05:26:46.503Z,19.00
2019-03-18T05:29:15.069Z,19.00
2019-03-18T05:31:43.557Z,19.10
2019-03-18T05:34:12.078Z,19.10
2019-03-18T05:36:40.519Z,19.10
2019-03-18T05:39:08.982Z,19.10
2019-03-18T05:41:37.468Z,19.20
2019-03-18T05:44:07.976Z,19.20
2019-03-18T05:46:36.986Z,19.20
2019-03-18T05:49:05.478Z,19.20
2019-03-18T05:51:33.926Z,19.30
2019-03-18T05:54:02.448Z,19.30
2019-03-18T05:56:31.020Z,19.30
2019-03-18T05:58:59.526Z,19.30
2019-03-18T06:01:28.133Z,19.30
2019-03-18T06:03:56.606Z,19.40
2019-03-18T06:06:25.075Z,19.40
2019-03-18T06:08:53.559Z,19.40
2019-03-18T06:11:22.071Z,19.40
2019-03-18T06:13:50.551Z,19.40
2019-03-18T06:16:19.062Z,19.40
2019-03-18T06:18:47.566Z,19.50
2019-03-18T06:21:16.096Z,19.50
2019-03-18T06:23:44.538Z,19.50
2019-03-18T06:26:13.056Z,19.50
2019-03-18T06:28:41.678Z,19.50
2019-03-18T06:31:10.122Z,19.60
2019-03-18T06:33:38.857Z,19.60
2019-03-18T06:36:07.464Z,19.60
2019-03-18T06:38:35.902Z,19.60
2019-03-18T06:41:04.758Z,19.70
2019-03-18T06:43:33.340Z,19.70
2019-03-18T06:46:01.772Z,19.70
2019-03-18T06:48:30.265Z,19.70
2019-03-18T06:50:58.875Z,19.80
2019-03-18T06:53:27.451Z,19.80
2019-03-18T06:55:56.116Z,19.80
2019-03-18T06:58:24.600Z,19.80
2019-03-18T07:00:53.084Z,19.90
2019-03-18T07:03:21.567Z,19.80
2019-03-18T07:05:50.041Z,19.90
2019-03-18T07:08:18.555Z,20.00
2019-03-18T07:10:47.085Z,19.90
2019-03-18T07:13:15.543Z,19.90
2019-03-18T07:15:44.118Z,20.00
2019-03-18T07:18:18.295Z,20.00
2019-03-18T07:20:42.778Z,20.00
2019-03-18T07:23:11.244Z,20.00
2019-03-18T07:25:39.743Z,20.00
2019-03-18T07:28:08.202Z,20.00
2019-03-18T07:30:37.161Z,20.10
2019-03-18T07:33:05.763Z,20.10
2019-03-18T07:35:34.279Z,20.10
2019-03-18T07:38:03.014Z,20.20
2019-03-18T07:40:31.542Z,20.10
2019-03-18T07:43:00.357Z,20.20
2019-03-18T07:45:29.174Z,20.10
2019-03-18T07:47:57.660Z,20.30
2019-03-18T07:50:26.211Z,20.30
2019-03-18T07:52:54.654Z,20.20
2019-03-18T07:55:23.442Z,20.20
2019-03-18T07:57:52.048Z,20.50
2019-03-18T08:00:20.490Z,20.50
2019-03-18T08:02:49.270Z,20.60
2019-03-18T08:05:17.784Z,20.60
2019-03-18T08:07:47.335Z,20.60
2019-03-18T08:10:15.816Z,20.60
2019-03-18T08:12:44.388Z,20.80
2019-03-18T08:15:13.551Z,21.30
2019-03-18T08:17:42.188Z,22.50
2019-03-18T08:20:15.833Z,23.90
2019-03-18T08:22:44.379Z,24.40
2019-03-18T08:25:13.201Z,24.90
2019-03-18T08:27:41.681Z,25.10
2019-03-18T08:30:15.725Z,25.10
2019-03-18T08:32:44.326Z,25.40
2019-03-18T08:35:13.775Z,24.50
2019-03-18T08:37:43.232Z,23.40
2019-03-18T08:40:12.176Z,24.50
2019-03-18T08:42:40.640Z,24.40
2019-03-18T08:45:13.715Z,24.80
2019-03-18T08:47:42.364Z,25.20
2019-03-18T08:50:12.465Z,24.50
2019-03-18T08:52:41.530Z,24.80
2019-03-18T08:55:10.719Z,24.80
2019-03-18T08:57:39.235Z,23.60
2019-03-18T09:00:13.693Z,23.60
2019-03-18T09:02:42.192Z,23.20
2019-03-18T09:05:10.820Z,23.20
2019-03-18T09:07:39.410Z,23.30
2019-03-18T09:10:12.536Z,23.30
2019-03-18T09:12:41.075Z,24.20
2019-03-18T09:15:10.688Z,24.50
2019-03-18T09:17:39.772Z,23.90
2019-03-18T09:20:16.271Z,22.30
2019-03-18T09:22:44.743Z,23.30
2019-03-18T09:25:13.199Z,24.60
2019-03-18T09:27:41.690Z,23.50
2019-03-18T09:30:13.233Z,22.20
2019-03-18T09:32:42.021Z,21.50
2019-03-18T09:35:10.816Z,21.50
2019-03-18T16:52:36.400Z,20.20
2019-03-18T16:55:05.394Z,20.20
2019-03-18T16:57:34.179Z,20.30
2019-03-18T17:00:02.930Z,20.40
2019-03-18T17:02:31.374Z,20.40
2019-03-18T17:05:00.003Z,20.40
2019-03-18T17:07:28.564Z,20.40
2019-03-18T17:09:57.970Z,20.50
2019-03-18T17:12:26.421Z,20.50
2019-03-18T17:14:56.629Z,20.60
2019-03-18T17:17:25.087Z,20.60
2019-03-18T17:19:55.159Z,20.60
2019-03-18T17:22:23.727Z,20.50
2019-03-18T17:24:52.284Z,20.50
2019-03-18T17:27:22.368Z,20.50
2019-03-18T17:29:50.831Z,20.50
2019-03-18T17:32:19.288Z,20.50
2019-03-18T17:34:47.828Z,20.50
2019-03-18T17:37:16.329Z,20.50
2019-03-18T17:39:44.937Z,20.50
2019-03-18T17:42:13.435Z,20.50
2019-03-18T17:44:41.877Z,20.50
2019-03-18T17:47:10.330Z,20.50
2019-03-18T17:49:38.905Z,20.50
2019-03-18T17:52:07.522Z,20.60
2019-03-18T17:54:36.059Z,20.60
2019-03-18T17:57:07.481Z,20.60
2019-03-18T17:59:34.867Z,20.60
2019-03-18T18:02:03.566Z,20.60
2019-03-18T18:04:32.137Z,20.60
2019-03-18T18:07:00.746Z,20.60
2019-03-18T18:09:29.229Z,20.60
2019-03-18T18:11:57.858Z,20.60
2019-03-18T18:14:26.382Z,20.60
2019-03-18T18:16:54.867Z,20.60
2019-03-18T18:19:23.405Z,20.60
2019-03-18T18:21:51.927Z,20.60
2019-03-18T18:24:21.018Z,20.60
2019-03-18T18:26:49.918Z,20.60
2019-03-18T18:29:18.388Z,20.60
2019-03-18T18:31:46.893Z,20.60
2019-03-18T18:34:15.355Z,20.60
2019-03-18T18:36:43.869Z,20.60
2019-03-18T18:39:12.374Z,20.60
2019-03-18T18:41:40.890Z,20.60
2019-03-18T18:44:09.407Z,20.60
2019-03-18T18:46:38.016Z,20.70
2019-03-18T18:49:06.600Z,20.70
2019-03-18T18:51:35.079Z,20.70
2019-03-18T18:54:03.543Z,20.70
2019-03-18T18:56:31.987Z,20.70
2019-03-18T18:59:00.537Z,20.70
2019-03-18T19:01:29.090Z,20.70
2019-03-18T19:03:57.542Z,20.70
2019-03-18T19:06:26.034Z,20.70
2019-03-18T19:08:54.664Z,20.70
2019-03-18T19:11:23.172Z,20.70
2019-03-18T19:13:53.201Z,20.70
2019-03-18T19:16:21.811Z,20.70
2019-03-18T19:18:50.545Z,20.70
2019-03-18T19:21:19.191Z,20.70
2019-03-18T19:23:47.646Z,20.70
2019-03-18T19:26:17.760Z,20.70
2019-03-18T19:28:46.268Z,20.70
2019-03-18T19:31:14.736Z,20.70
2019-03-18T19:33:43.208Z,20.70
2019-03-18T19:36:11.821Z,20.70
2019-03-18T19:38:40.352Z,20.70
2019-03-18T19:41:08.798Z,20.70
2019-03-18T19:43:37.327Z,20.70
2019-03-18T19:46:05.971Z,20.70
2019-03-18T19:48:34.659Z,20.70
2019-03-18T19:51:03.545Z,20.70
2019-03-18T19:53:32.056Z,20.70
2019-03-18T19:56:00.514Z,20.70
2019-03-18T19:58:29.032Z,20.70
2019-03-18T20:00:57.517Z,20.70
2019-03-18T20:03:26.064Z,20.70
2019-03-18T20:05:54.965Z,20.70
2019-03-18T20:08:23.638Z,20.70
2019-03-18T20:10:52.592Z,20.70
2019-03-18T20:13:22.725Z,20.70
2019-03-18T20:15:51.182Z,20.70
2019-03-18T20:18:19.715Z,20.70
2019-03-18T20:20:48.199Z,20.70
2019-03-18T20:23:16.707Z,20.70
2019-03-18T20:25:45.247Z,20.70
